Time;durP1;ratioP1;P1;durP2;ratioP2;P2;SDS_P1;SDS_P2;PMS_P1;PMS_P2;Temp;Humidity;BMP_temperature;BMP_pressure;BME280_temperature;BME280_humidity;BME280_pressure;Samples;Min_cycle;Max_cycle;Signal;HPM_P1;HPM_P2
2023/10/11 00:01:29;;;;;;;20.40;13.50;;;;;;;8.73;76.73;100786.40;108941;277;39005;-68
2023/10/11 00:04:23;;;;;;;21.90;14.30;;;;;;;8.73;76.85;100787.98;108902;277;38231;-67
2023/10/11 00:07:08;;;;;;;21.40;14.50;;;;;;;8.70;76.90;100784.75;108950;277;38742;-71
2023/10/11 00:09:51;;;;;;;23.60;15.30;;;;;;;8.68;77.03;100776.61;108968;277;38479;-72
2023/10/11 00:12:37;;;;;;;23.20;15.00;;;;;;;8.64;77.12;100770.44;108995;277;39918;-68
2023/10/11 00:15:20;;;;;;;22.80;14.30;;;;;;;8.59;77.31;100772.99;108974;277;39387;-67
2023/10/11 00:18:02;;;;;;;19.50;13.80;;;;;;;8.53;77.45;100770.34;108950;277;175185;-70
2023/10/11 00:20:50;;;;;;;20.70;15.10;;;;;;;8.51;77.82;100769.02;109001;277;39308;-69
2023/10/11 00:23:31;;;;;;;22.10;14.80;;;;;;;8.47;77.85;100769.27;108931;277;40159;-68
2023/10/11 00:26:14;;;;;;;23.30;15.00;;;;;;;8.42;78.06;100768.34;108960;277;38652;-67
2023/10/11 00:28:54;;;;;;;21.90;14.90;;;;;;;8.42;78.28;100764.17;108996;277;38218;-68
2023/10/11 00:31:33;;;;;;;21.90;14.50;;;;;;;8.43;78.41;100760.16;108973;277;39685;-69
2023/10/11 00:34:20;;;;;;;19.00;13.80;;;;;;;8.43;78.58;100764.50;108949;277;39914;-67
2023/10/11 00:36:58;;;;;;;22.80;15.20;;;;;;;8.45;78.64;100759.41;108929;277;39106;-67
2023/10/11 00:39:40;;;;;;;21.10;14.60;;;;;;;8.46;78.77;100757.64;108948;277;38890;-68
2023/10/11 00:42:22;;;;;;;22.40;16.10;;;;;;;8.48;78.96;100752.91;108989;277;38224;-67
2023/10/11 00:45:07;;;;;;;24.80;15.90;;;;;;;8.49;79.06;100754.27;108938;277;38154;-68
2023/10/11 00:47:46;;;;;;;20.60;14.10;;;;;;;8.51;79.03;100754.38;108947;277;38765;-69
2023/10/11 00:50:30;;;;;;;25.70;15.30;;;;;;;8.56;79.02;100753.24;108963;277;38260;-69
2023/10/11 00:53:11;;;;;;;21.30;15.80;;;;;;;8.59;79.11;100750.91;108967;277;38154;-69
2023/10/11 00:55:50;;;;;;;22.60;15.70;;;;;;;8.63;79.32;100746.29;108942;277;38216;-72
2023/10/11 00:58:28;;;;;;;20.90;15.00;;;;;;;8.63;79.20;100748.55;108982;277;38315;-70
2023/10/11 01:01:03;;;;;;;23.40;15.20;;;;;;;8.62;79.50;100744.06;109023;277;38268;-68
2023/10/11 01:03:44;;;;;;;22.70;15.40;;;;;;;8.65;79.70;100745.20;108989;277;38331;-67
2023/10/11 01:06:34;;;;;;;26.80;16.00;;;;;;;8.71;79.82;100739.48;108953;277;38508;-67
2023/10/11 01:09:17;;;;;;;24.30;16.00;;;;;;;8.76;79.66;100734.66;109000;277;38241;-68
2023/10/11 01:11:51;;;;;;;24.20;16.10;;;;;;;8.80;79.71;100729.86;109014;277;38802;-70
2023/10/11 01:14:28;;;;;;;24.00;16.80;;;;;;;8.83;79.89;100726.33;108939;277;38533;-70
2023/10/11 01:17:02;;;;;;;28.30;17.00;;;;;;;8.86;79.97;100725.91;108976;277;37930;-67
2023/10/11 01:19:44;;;;;;;26.10;17.00;;;;;;;8.88;80.01;100722.02;108869;277;188585;-67
2023/10/11 01:22:19;;;;;;;26.10;16.90;;;;;;;8.91;80.28;100715.33;108999;277;38476;-70
2023/10/11 01:24:54;;;;;;;26.40;17.30;;;;;;;8.96;80.36;100710.67;108879;277;172749;-70
2023/10/11 01:27:36;;;;;;;26.10;17.20;;;;;;;8.97;80.25;100707.70;108959;277;38997;-68
2023/10/11 01:30:15;;;;;;;26.30;17.90;;;;;;;8.98;80.52;100702.97;108918;277;39349;-68
2023/10/11 01:32:49;;;;;;;27.40;16.60;;;;;;;9.00;80.46;100698.38;108973;277;41287;-69
2023/10/11 01:35:36;;;;;;;26.30;18.10;;;;;;;9.03;80.67;100700.59;108920;277;39779;-67
2023/10/11 01:38:19;;;;;;;26.90;17.50;;;;;;;9.04;80.93;100702.64;106690;277;3013980;-67
2023/10/11 01:41:06;;;;;;;28.70;17.20;;;;;;;9.08;81.03;100698.38;108960;277;38399;-70
2023/10/11 01:43:41;;;;;;;30.70;18.40;;;;;;;9.08;81.41;100699.59;108994;277;39328;-70
2023/10/11 01:46:24;;;;;;;28.40;17.90;;;;;;;9.09;81.33;100694.86;108997;277;38470;-70
2023/10/11 01:48:59;;;;;;;26.90;18.00;;;;;;;9.12;81.58;100695.13;109025;277;39825;-70
2023/10/11 01:51:39;;;;;;;27.50;18.10;;;;;;;9.14;81.89;100691.05;108995;277;38238;-70
2023/10/11 01:54:15;;;;;;;30.70;18.60;;;;;;;9.17;81.80;100689.43;109014;277;38680;-70
2023/10/11 01:56:52;;;;;;;34.60;20.50;;;;;;;9.18;81.98;100690.26;109074;277;38174;-68
2023/10/11 01:59:31;;;;;;;32.00;19.00;;;;;;;9.18;82.02;100690.09;109033;277;39073;-67
2023/10/11 02:02:13;;;;;;;27.60;18.70;;;;;;;9.19;82.12;100691.61;109006;277;38373;-67
2023/10/11 02:05:05;;;;;;;34.60;20.90;;;;;;;9.21;82.17;100683.21;108964;277;38792;-68
2023/10/11 02:07:44;;;;;;;;;;;;;;;9.23;82.42;100678.44;108975;277;38741;-69
2023/10/11 02:10:25;;;;;;;42.60;24.10;;;;;;;9.21;82.39;100675.73;108915;277;38658;-70
2023/10/11 02:13:06;;;;;;;32.90;20.60;;;;;;;9.22;82.63;100681.62;108912;277;38440;-67
2023/10/11 02:15:46;;;;;;;29.10;18.30;;;;;;;9.23;82.75;100675.67;108944;277;39599;-67
2023/10/11 02:18:25;;;;;;;29.30;18.00;;;;;;;9.24;82.77;100671.80;108919;277;39719;-70
2023/10/11 02:21:06;;;;;;;26.20;17.00;;;;;;;9.25;82.85;100669.84;108941;277;40162;-70
2023/10/11 02:23:41;;;;;;;27.80;18.20;;;;;;;9.28;82.92;100667.34;108980;277;38489;-70
2023/10/11 02:26:28;;;;;;;25.60;17.70;;;;;;;9.30;83.03;100663.98;108987;276;38277;-70
2023/10/11 02:29:14;;;;;;;27.50;18.50;;;;;;;9.32;83.11;100662.73;109138;276;39343;-70
2023/10/11 02:31:58;;;;;;;25.70;17.80;;;;;;;9.32;83.17;100659.92;109199;276;38465;-70
2023/10/11 02:34:35;;;;;;;25.50;16.80;;;;;;;9.35;83.38;100663.84;109148;276;38487;-70
2023/10/11 02:37:16;;;;;;;24.90;17.20;;;;;;;9.38;83.23;100656.27;108605;276;916620;-68
2023/10/11 02:39:55;;;;;;;27.90;17.80;;;;;;;9.40;83.17;100654.47;109056;276;190213;-68
2023/10/11 02:42:36;;;;;;;23.90;17.20;;;;;;;9.41;83.24;100653.59;109213;276;38465;-70
2023/10/11 02:45:13;;;;;;;29.10;18.70;;;;;;;9.42;83.38;100649.56;109219;276;38162;-70
2023/10/11 02:47:59;;;;;;;25.70;17.50;;;;;;;9.43;83.52;100647.07;108661;276;665788;-68
2023/10/11 02:50:38;;;;;;;27.40;17.60;;;;;;;9.46;83.61;100639.69;109083;276;38790;-69
2023/10/11 02:53:21;;;;;;;23.30;16.40;;;;;;;9.46;83.57;100637.25;109116;276;39157;-67
2023/10/11 02:55:59;;;;;;;25.30;16.90;;;;;;;9.48;83.47;100635.60;109066;276;39263;-70
2023/10/11 02:58:35;;;;;;;28.20;17.20;;;;;;;9.53;83.58;100633.20;109119;276;38131;-70
2023/10/11 03:01:20;;;;;;;27.80;18.80;;;;;;;9.54;83.58;100637.14;109088;276;38254;-68
2023/10/11 03:04:11;;;;;;;25.50;17.50;;;;;;;9.56;83.75;100636.77;109101;276;38876;-68
2023/10/11 03:06:50;;;;;;;25.10;17.80;;;;;;;9.57;83.76;100636.73;109142;276;39265;-70
2023/10/11 03:09:27;;;;;;;26.50;17.00;;;;;;;9.59;83.74;100632.67;109117;276;38617;-71
2023/10/11 03:12:06;;;;;;;25.70;17.00;;;;;;;9.63;83.81;100633.77;109170;276;39386;-72
2023/10/11 03:14:42;;;;;;;28.40;18.80;;;;;;;9.65;83.88;100630.06;109151;276;38180;-72
2023/10/11 03:17:20;;;;;;;25.10;18.10;;;;;;;9.65;83.90;100627.09;108532;276;901781;-70
2023/10/11 03:20:00;;;;;;;25.30;17.50;;;;;;;9.65;83.87;100621.67;109189;276;37837;-70
2023/10/11 03:22:40;;;;;;;25.20;17.60;;;;;;;9.69;84.01;100619.48;109197;276;39138;-70
2023/10/11 03:25:18;;;;;;;22.40;16.60;;;;;;;9.69;83.98;100620.00;109174;276;38413;-70
2023/10/11 03:27:53;;;;;;;26.30;17.90;;;;;;;9.68;83.89;100611.30;108981;276;39247;-71
2023/10/11 03:30:35;;;;;;;25.90;18.30;;;;;;;9.70;84.21;100614.73;109148;276;38701;-70
2023/10/11 03:33:13;;;;;;;29.00;18.20;;;;;;;9.71;84.25;100611.08;109084;276;38225;-68
2023/10/11 03:35:50;;;;;;;27.10;17.40;;;;;;;9.72;84.17;100607.55;109089;276;39435;-72
2023/10/11 03:38:26;;;;;;;26.50;17.60;;;;;;;9.72;84.28;100605.80;109091;276;39309;-70
2023/10/11 03:41:14;;;;;;;25.70;17.70;;;;;;;9.70;84.34;100602.02;109167;276;38764;-70
2023/10/11 03:43:54;;;;;;;27.40;18.50;;;;;;;9.73;84.54;100596.00;109109;276;38312;-70
2023/10/11 03:46:34;;;;;;;28.00;18.60;;;;;;;9.76;84.57;100599.41;108978;276;172742;-71
2023/10/11 03:52:19;;;;;;;26.70;17.10;;;;;;;9.80;84.75;100595.98;109141;276;38159;-68
2023/10/11 03:55:05;;;;;;;24.10;17.20;;;;;;;9.82;84.75;100598.34;109130;276;38552;-67
2023/10/11 03:57:45;;;;;;;26.30;18.50;;;;;;;9.86;84.87;100596.67;109180;276;38347;-70
2023/10/11 04:00:28;;;;;;;25.30;17.90;;;;;;;9.89;85.11;100593.96;109195;276;39182;-70
2023/10/11 04:03:05;;;;;;;25.60;17.90;;;;;;;9.90;84.93;100587.48;109199;276;38380;-70
2023/10/11 04:05:47;;;;;;;27.40;17.70;;;;;;;9.92;85.02;100583.08;109232;276;39442;-70
2023/10/11 04:08:25;;;;;;;26.10;17.20;;;;;;;9.93;85.03;100577.77;109173;276;38339;-70
2023/10/11 04:10:59;;;;;;;25.70;16.80;;;;;;;9.95;85.05;100578.95;109108;276;38558;-68
2023/10/11 04:13:46;;;;;;;25.50;18.00;;;;;;;9.99;85.15;100572.36;109135;276;38578;-68
2023/10/11 04:16:23;;;;;;;25.00;17.80;;;;;;;10.04;85.07;100566.11;109157;276;39734;-70
2023/10/11 04:19:01;;;;;;;29.60;18.50;;;;;;;10.05;84.98;100567.64;109126;276;39820;-70
2023/10/11 04:21:54;;;;;;;25.30;17.30;;;;;;;10.06;85.00;100569.19;109086;276;38371;-71
2023/10/11 04:24:34;;;;;;;25.60;17.10;;;;;;;10.05;84.98;100566.94;109137;276;38477;-70
2023/10/11 04:27:45;;;;;;;26.40;18.20;;;;;;;10.05;84.90;100563.13;109142;276;38447;-68
2023/10/11 04:30:27;;;;;;;26.70;18.50;;;;;;;10.04;84.98;100555.30;109112;276;39321;-68
2023/10/11 04:33:10;;;;;;;25.20;17.70;;;;;;;10.03;85.03;100549.22;108788;276;175440;-68
2023/10/11 04:35:55;;;;;;;26.00;18.00;;;;;;;10.04;85.31;100551.48;109101;276;38594;-70
2023/10/11 04:38:34;;;;;;;25.00;18.00;;;;;;;10.05;85.39;100543.26;109012;276;175376;-71
2023/10/11 04:41:14;;;;;;;28.40;18.50;;;;;;;10.06;85.45;100542.17;109181;276;39366;-68
2023/10/11 04:43:51;;;;;;;23.30;17.00;;;;;;;10.08;85.67;100538.42;109125;276;38313;-68
2023/10/11 04:46:30;;;;;;;26.00;17.70;;;;;;;10.07;85.61;100534.63;109175;276;38740;-68
2023/10/11 04:49:18;;;;;;;25.30;17.90;;;;;;;10.06;85.62;100536.77;109155;276;39193;-68
2023/10/11 04:51:56;;;;;;;24.40;17.30;;;;;;;10.06;85.67;100542.69;109184;276;39541;-71
2023/10/11 04:54:42;;;;;;;25.20;17.30;;;;;;;10.03;85.75;100541.73;108979;276;38668;-70
2023/10/11 04:57:18;;;;;;;25.70;17.30;;;;;;;10.01;85.69;100542.14;109139;276;38246;-67
2023/10/11 04:59:59;;;;;;;27.40;17.90;;;;;;;10.00;85.48;100538.71;109108;276;38223;-68
2023/10/11 05:02:51;;;;;;;24.90;17.60;;;;;;;9.98;85.95;100533.34;109129;276;38258;-69
2023/10/11 05:05:32;;;;;;;23.80;17.20;;;;;;;10.00;86.05;100531.73;109097;276;38451;-69
2023/10/11 05:08:20;;;;;;;25.10;17.50;;;;;;;9.98;86.07;100534.05;109100;276;38236;-70
2023/10/11 05:11:02;;;;;;;23.40;17.10;;;;;;;9.97;86.24;100532.36;109149;276;38242;-70
2023/10/11 05:13:39;;;;;;;27.60;18.50;;;;;;;9.98;86.38;100529.36;108915;276;38262;-70
2023/10/11 05:16:17;;;;;;;26.40;18.00;;;;;;;9.99;86.42;100530.35;109127;276;38602;-70
2023/10/11 05:18:53;;;;;;;25.20;16.60;;;;;;;10.02;86.29;100523.64;109158;276;38251;-71
2023/10/11 05:21:28;;;;;;;29.10;18.80;;;;;;;10.03;86.27;100525.20;109123;276;38234;-70
2023/10/11 05:24:14;;;;;;;24.40;18.00;;;;;;;10.05;86.32;100527.54;109097;276;38420;-68
2023/10/11 05:27:03;;;;;;;27.10;18.70;;;;;;;10.09;86.51;100524.63;109170;276;39134;-70
2023/10/11 05:30:05;;;;;;;26.10;18.40;;;;;;;10.13;86.49;100527.11;109174;276;39634;-70
2023/10/11 05:32:41;;;;;;;30.30;19.60;;;;;;;10.12;86.47;100528.17;109216;276;38218;-68
2023/10/11 05:35:53;;;;;;;24.60;17.00;;;;;;;10.10;86.29;100525.30;109178;276;39122;-68
2023/10/11 05:52:29;;;;;;;25.30;18.30;;;;;;;10.31;87.19;100506.83;109131;276;39179;-70
2023/10/11 05:55:06;;;;;;;27.70;19.10;;;;;;;10.37;87.19;100503.12;109111;276;38761;-70
2023/10/11 05:57:46;;;;;;;26.40;19.40;;;;;;;10.44;87.45;100501.51;109154;276;38507;-67
2023/10/11 06:00:27;;;;;;;29.60;19.20;;;;;;;10.49;87.50;100501.66;109071;276;38227;-67
2023/10/11 06:03:01;;;;;;;26.40;19.20;;;;;;;10.56;87.72;100499.30;109155;276;38506;-68
2023/10/11 06:05:39;;;;;;;30.10;19.00;;;;;;;10.66;87.73;100503.66;109144;276;38598;-70
2023/10/11 06:08:17;;;;;;;26.80;18.20;;;;;;;10.80;88.04;100504.19;109045;276;175408;-68
2023/10/11 06:10:52;;;;;;;26.50;17.90;;;;;;;10.97;88.08;100499.73;109134;276;38687;-71
2023/10/11 06:13:26;;;;;;;28.20;18.50;;;;;;;11.14;88.19;100497.85;109229;276;38354;-68
2023/10/11 06:16:07;;;;;;;26.20;19.60;;;;;;;11.28;88.10;100494.19;109200;276;38278;-71
2023/10/11 06:18:57;;;;;;;26.00;18.40;;;;;;;11.39;87.78;100496.38;109199;276;38388;-71
2023/10/11 06:21:34;;;;;;;25.10;17.50;;;;;;;11.49;87.23;100499.48;109191;276;38761;-69
2023/10/11 06:24:10;;;;;;;;;;;;;;;11.58;87.27;100492.83;109239;276;38693;-67
2023/10/11 06:26:53;;;;;;;25.50;17.80;;;;;;;11.62;86.87;100492.83;109194;276;39926;-70
2023/10/11 06:29:32;;;;;;;24.00;18.10;;;;;;;11.68;86.84;100492.94;108930;276;38174;-70
2023/10/11 06:32:11;;;;;;;26.50;18.30;;;;;;;11.74;86.61;100486.07;109160;276;38826;-70
2023/10/11 06:34:47;;;;;;;24.00;17.60;;;;;;;11.80;86.66;100490.67;108928;276;38481;-71
2023/10/11 06:37:25;;;;;;;26.00;17.40;;;;;;;11.87;86.33;100490.79;109171;276;38569;-69
2023/10/11 06:40:14;;;;;;;25.60;19.10;;;;;;;11.96;86.37;100494.11;109105;276;39053;-69
2023/10/11 06:42:53;;;;;;;25.50;19.20;;;;;;;12.06;86.39;100487.20;109122;276;39079;-69
2023/10/11 06:45:32;;;;;;;26.50;17.90;;;;;;;12.17;86.15;100479.41;109145;276;38766;-69
2023/10/11 06:48:13;;;;;;;25.60;17.10;;;;;;;12.22;85.66;100476.91;109118;276;38167;-68
2023/10/11 06:50:52;;;;;;;22.10;17.20;;;;;;;12.25;85.44;100471.50;109151;276;39469;-70
2023/10/11 06:53:28;;;;;;;;;;;;;;;12.31;85.18;100466.52;109097;276;39040;-69
2023/10/11 06:56:05;;;;;;;28.30;19.30;;;;;;;12.35;85.43;100469.67;109142;276;38292;-70
2023/10/11 06:58:45;;;;;;;26.20;18.30;;;;;;;12.42;85.27;100464.30;109191;276;38484;-73
2023/10/11 07:01:22;;;;;;;24.50;18.40;;;;;;;12.53;85.40;100463.80;109177;276;38790;-69
2023/10/11 07:04:03;;;;;;;25.40;17.50;;;;;;;12.67;85.39;100462.67;109154;276;38237;-69
2023/10/11 07:06:42;;;;;;;23.90;18.10;;;;;;;12.83;85.28;100464.56;109248;276;38141;-70
2023/10/11 07:09:22;;;;;;;27.50;18.70;;;;;;;12.98;85.17;100456.67;109021;276;40768;-69
2023/10/11 07:12:28;;;;;;;22.30;16.40;;;;;;;13.12;85.08;100452.34;109175;276;38140;-69
2023/10/11 07:14:54;;;;;;;22.80;16.50;;;;;;;13.31;84.60;100456.23;109100;276;38526;-68
2023/10/11 07:17:32;;;;;;;22.70;16.80;;;;;;;13.45;84.09;100457.11;109137;276;39208;-69
2023/10/11 07:20:38;;;;;;;;;;;;;;;13.56;83.56;100454.50;109098;276;38411;-69
2023/10/11 07:23:09;;;;;;;25.00;18.20;;;;;;;13.65;83.36;100447.55;108931;276;175244;-69
2023/10/11 07:25:47;;;;;;;25.80;18.00;;;;;;;13.75;83.21;100448.12;109110;276;38131;-71
2023/10/11 07:28:35;;;;;;;25.00;17.10;;;;;;;13.86;82.94;100441.59;108985;276;38408;-71
2023/10/11 07:31:16;;;;;;;23.50;15.90;;;;;;;13.97;82.71;100437.35;108985;276;39913;-71
2023/10/11 07:33:55;;;;;;;23.30;16.00;;;;;;;14.10;82.67;100429.98;109098;276;38409;-71
2023/10/11 07:36:32;;;;;;;23.70;17.30;;;;;;;14.32;83.08;100440.45;109163;276;38353;-69
2023/10/11 07:39:19;;;;;;;20.70;16.30;;;;;;;14.55;82.72;100439.27;109139;276;38272;-68
2023/10/11 07:42:00;;;;;;;20.40;16.50;;;;;;;14.73;82.01;100431.61;109123;276;38667;-71
2023/10/11 07:44:38;;;;;;;22.30;16.70;;;;;;;14.94;81.66;100426.27;109175;276;38241;-71
2023/10/11 07:47:18;;;;;;;20.90;15.80;;;;;;;15.26;81.14;100426.23;109152;276;38140;-73
2023/10/11 07:49:56;;;;;;;18.00;15.40;;;;;;;15.64;81.01;100421.63;109190;276;39147;-71
2023/10/11 07:52:30;;;;;;;20.00;15.00;;;;;;;16.07;79.97;100409.38;109162;276;38140;-70
2023/10/11 07:55:12;;;;;;;21.60;15.20;;;;;;;16.49;79.00;100404.36;109121;276;38503;-70
2023/10/11 07:57:46;;;;;;;20.00;15.70;;;;;;;16.94;77.88;100394.81;109094;276;38718;-71
2023/10/11 08:03:12;;;;;;;19.00;15.80;;;;;;;17.55;74.26;100382.02;109081;276;38754;-69
2023/10/11 08:05:53;;;;;;;17.80;15.10;;;;;;;17.61;73.22;100386.98;109117;276;38687;-70
2023/10/11 08:08:31;;;;;;;17.30;15.30;;;;;;;17.66;73.42;100385.69;109082;276;39644;-69
2023/10/11 08:11:18;;;;;;;18.20;14.80;;;;;;;17.76;72.62;100385.24;109105;276;38990;-70
2023/10/11 08:14:00;;;;;;;21.10;15.70;;;;;;;17.76;72.08;100384.71;109100;276;39715;-69
2023/10/11 08:16:34;;;;;;;18.60;15.80;;;;;;;17.77;72.27;100380.39;109176;276;38729;-71
2023/10/11 08:19:11;;;;;;;18.00;15.20;;;;;;;17.78;72.13;100379.27;109125;276;38236;-72
2023/10/11 08:21:54;;;;;;;20.20;14.80;;;;;;;17.79;71.95;100369.53;109191;276;39400;-70
2023/10/11 08:24:45;;;;;;;19.50;15.00;;;;;;;17.80;71.88;100367.00;109186;276;38332;-70
2023/10/11 08:27:27;;;;;;;18.80;15.00;;;;;;;17.81;71.91;100361.63;109183;276;38767;-70
2023/10/11 08:30:16;;;;;;;19.60;15.70;;;;;;;17.81;72.04;100357.05;109137;276;38219;-69
2023/10/11 08:32:51;;;;;;;20.20;15.30;;;;;;;17.81;71.69;100355.63;109144;276;40014;-70
2023/10/11 08:35:31;;;;;;;17.50;15.10;;;;;;;17.80;72.18;100353.73;109175;276;38211;-70
2023/10/11 08:38:07;;;;;;;20.10;14.60;;;;;;;17.87;72.34;100348.87;108952;276;38591;-68
2023/10/11 08:40:50;;;;;;;20.20;14.30;;;;;;;17.93;72.12;100343.86;109155;276;38454;-71
2023/10/11 08:43:25;;;;;;;16.20;12.80;;;;;;;18.02;72.32;100334.18;109098;276;38150;-70
2023/10/11 08:46:05;;;;;;;17.00;12.70;;;;;;;18.19;72.52;100328.59;109123;276;38154;-71
2023/10/11 08:48:39;;;;;;;16.70;13.80;;;;;;;18.33;72.06;100330.98;109132;276;38454;-69
2023/10/11 08:51:22;;;;;;;18.10;13.20;;;;;;;18.43;71.91;100332.39;109107;276;38252;-70
2023/10/11 08:54:00;;;;;;;16.20;12.50;;;;;;;18.54;71.50;100330.19;109082;276;38845;-69
2023/10/11 08:56:34;;;;;;;17.20;12.80;;;;;;;18.61;71.12;100328.45;109129;276;38480;-71
2023/10/11 08:59:14;;;;;;;15.20;12.80;;;;;;;18.69;71.24;100320.79;109086;276;39289;-72
2023/10/11 09:01:48;;;;;;;16.70;12.50;;;;;;;18.81;71.13;100317.66;109166;276;38275;-72
2023/10/11 09:04:27;;;;;;;13.10;11.60;;;;;;;18.89;70.53;100318.71;109147;276;38206;-72
2023/10/11 09:07:00;;;;;;;14.40;12.10;;;;;;;18.96;70.58;100314.98;109176;276;39644;-70
2023/10/11 09:09:40;;;;;;;16.20;12.10;;;;;;;19.05;70.12;100312.34;108999;276;38738;-69
2023/10/11 09:12:24;;;;;;;16.50;12.80;;;;;;;19.17;70.00;100308.65;109188;276;38283;-72
2023/10/11 09:15:04;;;;;;;14.30;11.70;;;;;;;19.28;69.73;100312.02;109194;276;38304;-72
2023/10/11 09:17:42;;;;;;;14.00;11.50;;;;;;;19.48;69.64;100309.30;109209;276;38720;-70
2023/10/11 09:20:23;;;;;;;13.70;11.00;;;;;;;19.69;69.46;100303.65;109178;276;38285;-69
2023/10/11 09:23:03;;;;;;;16.60;12.20;;;;;;;19.86;68.73;100303.05;109166;276;38728;-72
2023/10/11 09:25:57;;;;;;;16.80;11.50;;;;;;;19.98;68.05;100298.05;109186;276;38765;-71
2023/10/11 09:28:33;;;;;;;16.30;12.30;;;;;;;20.13;67.41;100297.52;109127;276;38767;-71
2023/10/11 09:31:15;;;;;;;19.60;11.30;;;;;;;20.37;67.32;100292.27;109128;276;38230;-72
2023/10/11 09:33:53;;;;;;;16.00;10.60;;;;;;;20.68;67.15;100286.05;109072;276;38126;-72
2023/10/11 09:36:28;;;;;;;13.70;11.10;;;;;;;21.03;66.37;100277.86;109145;276;38240;-73
2023/10/11 09:39:03;;;;;;;12.40;9.50;;;;;;;21.32;65.59;100280.25;109086;269;38500;-73
2023/10/11 09:41:40;;;;;;;12.20;9.90;;;;;;;21.57;64.68;100280.96;109118;276;38185;-70
2023/10/11 09:44:17;;;;;;;13.10;10.20;;;;;;;21.74;64.16;100276.16;109063;276;39828;-70
2023/10/11 09:46:51;;;;;;;13.40;9.80;;;;;;;21.96;63.58;100277.80;109113;276;38476;-72
2023/10/11 09:49:26;;;;;;;12.10;10.00;;;;;;;22.15;62.91;100277.17;109118;276;38694;-72
2023/10/11 09:52:07;;;;;;;13.40;9.60;;;;;;;22.28;62.00;100277.17;109137;276;39489;-70
2023/10/11 09:54:42;;;;;;;13.80;10.20;;;;;;;22.33;61.70;100273.52;109014;276;174792;-69
2023/10/11 09:57:26;;;;;;;14.70;9.90;;;;;;;22.36;61.67;100269.29;109182;276;39885;-72
2023/10/11 10:00:14;;;;;;;12.20;9.40;;;;;;;22.35;61.42;100272.38;109137;276;38241;-72
2023/10/11 10:02:54;;;;;;;16.00;9.90;;;;;;;22.32;61.53;100269.64;109223;276;38842;-70
2023/10/11 10:05:41;;;;;;;12.90;9.30;;;;;;;22.24;60.51;100257.55;109157;276;38628;-71
2023/10/11 10:08:19;;;;;;;12.30;9.10;;;;;;;22.14;60.25;100249.38;109162;276;38251;-72
2023/10/11 10:10:58;;;;;;;12.50;9.00;;;;;;;22.00;59.57;100247.39;109183;276;38580;-72
2023/10/11 10:13:37;;;;;;;10.10;8.20;;;;;;;21.87;59.58;100245.38;109129;276;38170;-71
2023/10/11 10:16:14;;;;;;;11.30;8.30;;;;;;;21.72;60.30;100235.15;108997;276;174778;-73
2023/10/11 10:19:04;;;;;;;10.60;8.10;;;;;;;21.68;61.09;100232.83;109086;276;38433;-73
2023/10/11 10:22:23;;;;;;;11.90;8.90;;;;;;;21.64;60.78;100226.54;109181;276;38793;-74
2023/10/11 10:24:58;;;;;;;12.40;9.00;;;;;;;21.58;60.87;100224.74;108815;281;38565;-72
2023/10/11 10:27:45;;;;;;;13.60;8.80;;;;;;;21.54;60.89;100222.31;109084;276;38500;-70
2023/10/11 10:30:21;;;;;;;12.00;7.80;;;;;;;21.49;61.24;100217.36;109132;276;39331;-69
2023/10/11 10:33:22;;;;;;;13.00;8.40;;;;;;;21.47;60.88;100217.08;109135;276;38235;-70
2023/10/11 10:35:56;;;;;;;10.50;8.10;;;;;;;21.41;60.61;100214.58;109099;276;38227;-69
2023/10/11 10:39:05;;;;;;;11.30;7.60;;;;;;;21.36;60.81;100209.08;109108;276;39504;-70
2023/10/11 10:41:41;;;;;;;12.50;7.90;;;;;;;21.31;60.59;100206.90;108991;276;38150;-72
2023/10/11 10:44:19;;;;;;;13.60;8.20;;;;;;;21.28;60.64;100206.05;109139;276;38526;-72
2023/10/11 10:46:55;;;;;;;13.40;8.10;;;;;;;21.27;60.84;100206.61;108758;276;544086;-72
2023/10/11 10:49:44;;;;;;;12.50;7.90;;;;;;;21.27;60.45;100203.50;109200;276;38388;-72
2023/10/11 10:52:25;;;;;;;13.90;8.40;;;;;;;21.21;60.23;100199.15;109149;276;37244;-70
2023/10/11 10:55:03;;;;;;;9.40;7.30;;;;;;;21.15;59.84;100204.67;109042;276;41413;-70
2023/10/11 10:57:41;;;;;;;10.90;7.50;;;;;;;21.11;60.53;100210.98;109139;276;38729;-69
2023/10/11 11:00:25;;;;;;;12.10;8.30;;;;;;;21.11;60.54;100208.71;109130;276;38556;-69
2023/10/11 11:03:02;;;;;;;12.90;7.40;;;;;;;21.11;60.69;100210.67;109059;276;38469;-70
2023/10/11 11:05:39;;;;;;;10.60;8.10;;;;;;;21.11;60.61;100211.70;109140;276;39189;-72
2023/10/11 11:08:24;;;;;;;16.50;8.10;;;;;;;21.13;60.79;100208.54;109069;276;38848;-72
2023/10/11 11:11:19;;;;;;;11.50;7.00;;;;;;;21.11;60.51;100202.80;109138;276;38505;-71
2023/10/11 11:13:54;;;;;;;11.60;8.00;;;;;;;21.11;60.60;100198.05;109125;276;39120;-72
2023/10/11 11:16:31;;;;;;;11.10;7.70;;;;;;;21.10;60.43;100197.42;109153;276;38570;-70
2023/10/11 11:19:18;;;;;;;16.80;7.50;;;;;;;21.07;60.29;100190.64;109082;276;39571;-70
2023/10/11 11:22:06;;;;;;;9.00;7.10;;;;;;;21.05;60.41;100184.71;109130;276;39730;-72
2023/10/11 11:24:42;;;;;;;9.30;6.90;;;;;;;21.05;60.58;100181.55;109104;276;38703;-72
2023/10/11 11:27:25;;;;;;;11.60;6.70;;;;;;;21.03;60.39;100178.16;109125;276;38248;-70
2023/10/11 11:30:15;;;;;;;11.90;7.00;;;;;;;20.99;60.02;100174.98;109001;276;174473;-69
2023/10/11 11:32:53;;;;;;;9.50;6.60;;;;;;;20.98;60.47;100174.16;109150;276;38239;-72
2023/10/11 11:35:31;;;;;;;13.10;7.00;;;;;;;21.00;60.80;100172.77;109154;276;38398;-72
2023/10/11 11:38:06;;;;;;;10.20;7.60;;;;;;;21.02;60.74;100173.87;109119;276;38170;-73
2023/10/11 11:40:47;;;;;;;9.10;6.30;;;;;;;21.02;60.61;100166.58;109212;276;38224;-72
2023/10/11 11:43:32;;;;;;;8.40;6.60;;;;;;;21.03;60.82;100162.74;109137;276;39426;-73
2023/10/11 11:46:09;;;;;;;10.00;6.90;;;;;;;21.05;60.56;100161.91;109013;276;38642;-71
2023/10/11 11:48:50;;;;;;;11.30;6.90;;;;;;;21.04;60.75;100156.29;109135;276;38705;-72
2023/10/11 11:51:26;;;;;;;11.20;7.00;;;;;;;21.05;60.71;100149.79;109065;276;38773;-70
2023/10/11 11:54:02;;;;;;;12.70;6.60;;;;;;;21.07;60.46;100147.89;109113;276;38634;-69
2023/10/11 11:56:36;;;;;;;10.10;6.60;;;;;;;21.06;60.50;100141.73;109124;276;38619;-69
2023/10/11 11:59:17;;;;;;;10.10;6.30;;;;;;;21.06;60.50;100143.71;109123;276;38430;-69
2023/10/11 12:01:53;;;;;;;9.60;6.30;;;;;;;21.06;60.70;100144.52;109102;276;38251;-68
2023/10/11 12:04:36;;;;;;;11.70;7.00;;;;;;;21.07;60.45;100147.31;109089;276;38129;-69
2023/10/11 12:07:17;;;;;;;9.50;6.50;;;;;;;21.06;60.28;100139.98;109166;276;39210;-69
2023/10/11 12:09:55;;;;;;;13.90;6.60;;;;;;;21.05;60.32;100136.48;109126;276;38449;-69
2023/10/11 12:12:31;;;;;;;13.10;6.70;;;;;;;21.06;60.44;100136.20;109179;276;39541;-69
2023/10/11 12:15:16;;;;;;;10.60;6.70;;;;;;;21.09;60.43;100137.77;109140;276;38485;-70
2023/10/11 12:17:53;;;;;;;14.00;6.40;;;;;;;21.13;60.27;100134.92;109199;276;38302;-71
2023/10/11 12:20:33;;;;;;;10.60;6.50;;;;;;;21.14;60.40;100131.30;109163;276;38762;-70
2023/10/11 12:23:10;;;;;;;11.60;6.60;;;;;;;21.17;60.35;100129.27;109128;276;40764;-69
2023/10/11 12:25:47;;;;;;;13.90;6.80;;;;;;;21.19;60.13;100127.88;109188;276;39867;-71
2023/10/11 12:28:25;;;;;;;10.60;6.60;;;;;;;21.21;60.01;100126.82;109164;276;38226;-70
2023/10/11 12:31:00;;;;;;;10.70;5.80;;;;;;;21.24;60.13;100125.16;109211;276;38803;-70
2023/10/11 12:33:36;;;;;;;13.00;6.50;;;;;;;21.24;59.32;100124.27;109166;276;38219;-70
2023/10/11 12:36:14;;;;;;;12.30;6.40;;;;;;;21.23;58.97;100120.11;109134;276;38415;-70